createdAt,value
2022-11-11T00:01:02.685Z,2.77
2022-11-11T00:03:29.765Z,3.00
2022-11-11T00:06:01.543Z,2.40
2022-11-11T00:08:28.148Z,2.50
2022-11-11T00:11:03.259Z,3.33
2022-11-11T00:13:30.425Z,3.17
2022-11-11T00:15:57.088Z,3.00
2022-11-11T00:18:42.050Z,3.60
2022-11-11T00:21:32.154Z,3.17
2022-11-11T00:24:17.165Z,3.30
2022-11-11T00:26:43.890Z,3.13
2022-11-11T00:29:10.667Z,2.80
2022-11-11T00:31:57.278Z,3.43
2022-11-11T00:34:23.924Z,4.00
2022-11-11T00:36:50.578Z,3.37
2022-11-11T00:39:17.188Z,3.13
2022-11-11T00:41:43.784Z,3.77
2022-11-11T00:44:10.408Z,3.00
2022-11-11T00:46:55.700Z,3.00
2022-11-11T00:49:40.985Z,3.30
2022-11-11T00:52:07.686Z,3.43
2022-11-11T00:54:34.360Z,3.37
2022-11-11T00:57:00.940Z,3.10
2022-11-11T00:59:27.580Z,3.23
2022-11-11T01:01:54.336Z,3.30
2022-11-11T01:04:21.172Z,3.20
2022-11-11T01:06:47.827Z,3.53
2022-11-11T01:09:14.531Z,3.03
2022-11-11T01:11:41.164Z,3.40
2022-11-11T01:14:07.859Z,2.90
2022-11-11T01:16:34.610Z,2.80
2022-11-11T01:19:01.264Z,2.70
2022-11-11T01:21:27.871Z,2.60
2022-11-11T01:23:54.828Z,4.47
2022-11-11T01:26:30.608Z,2.87
2022-11-11T01:28:58.402Z,3.20
2022-11-11T01:31:25.329Z,3.00
2022-11-11T01:33:51.987Z,2.93
2022-11-11T01:36:24.054Z,2.70
2022-11-11T01:38:51.913Z,4.03
2022-11-11T01:41:33.050Z,3.03
2022-11-11T01:44:03.775Z,2.67
2022-11-11T01:46:35.326Z,2.80
2022-11-11T01:49:24.046Z,3.30
2022-11-11T01:51:56.508Z,3.30
2022-11-11T01:54:36.343Z,3.10
2022-11-11T01:57:16.602Z,2.60
2022-11-11T01:59:44.602Z,2.40
2022-11-11T02:02:18.997Z,2.40
2022-11-11T02:05:04.185Z,2.47
2022-11-11T02:07:31.327Z,2.37
2022-11-11T02:09:58.080Z,2.60
2022-11-11T02:12:43.252Z,2.00
2022-11-11T02:15:10.106Z,2.00
2022-11-11T02:17:36.754Z,2.50
2022-11-11T02:20:03.907Z,2.50
2022-11-11T02:22:42.806Z,2.23
2022-11-11T02:25:10.794Z,2.20
2022-11-11T02:27:38.824Z,1.93
2022-11-11T02:30:07.779Z,1.90
2022-11-11T02:32:34.394Z,2.10
2022-11-11T02:35:00.999Z,2.07
2022-11-11T02:37:28.060Z,2.67
2022-11-11T02:40:03.821Z,1.93
2022-11-11T02:42:31.251Z,2.03
2022-11-11T02:44:59.419Z,2.20
2022-11-11T02:47:27.254Z,2.00
2022-11-11T02:49:54.182Z,2.00
2022-11-11T02:52:20.985Z,2.57
2022-11-11T02:54:49.292Z,2.17
2022-11-11T02:57:16.731Z,2.17
2022-11-11T02:59:43.660Z,1.90
2022-11-11T03:02:10.484Z,2.13
2022-11-11T03:04:38.394Z,1.93
2022-11-11T03:07:05.364Z,1.97
2022-11-11T03:09:32.295Z,2.00
2022-11-11T03:11:59.176Z,2.10
2022-11-11T03:14:25.861Z,2.00
2022-11-11T03:17:10.982Z,2.10
2022-11-11T03:19:37.815Z,1.97
2022-11-11T03:22:54.003Z,2.47
2022-11-11T03:25:09.668Z,1.83
2022-11-11T03:27:36.254Z,1.90
2022-11-11T03:30:02.875Z,1.60
2022-11-11T03:32:29.462Z,1.93
2022-11-11T03:34:56.071Z,1.50
2022-11-11T03:37:41.216Z,1.60
2022-11-11T03:40:08.624Z,1.50
2022-11-11T03:42:35.287Z,1.80
2022-11-11T03:45:01.893Z,1.90
2022-11-11T03:47:28.476Z,1.80
2022-11-11T03:49:55.068Z,1.87
2022-11-11T03:52:21.654Z,1.63
2022-11-11T03:54:48.260Z,1.97
2022-11-11T03:57:32.851Z,2.00
2022-11-11T03:59:59.508Z,2.27
2022-11-11T04:02:44.599Z,2.27
2022-11-11T04:05:29.602Z,1.80
2022-11-11T04:08:14.724Z,1.90
2022-11-11T04:10:41.345Z,2.10
2022-11-11T04:13:26.684Z,1.80
2022-11-11T04:16:08.508Z,1.67
2022-11-11T04:18:54.019Z,1.70
2022-11-11T04:21:39.582Z,1.83
2022-11-11T04:24:25.057Z,1.80
2022-11-11T04:26:51.723Z,1.80
2022-11-11T04:29:30.296Z,2.00
2022-11-11T04:32:18.514Z,1.87
2022-11-11T04:34:49.285Z,1.80
2022-11-11T04:37:16.070Z,1.87
2022-11-11T04:40:01.568Z,1.50
2022-11-11T04:42:28.274Z,1.77
2022-11-11T04:45:13.269Z,1.97
2022-11-11T04:47:53.436Z,1.70
2022-11-11T04:50:20.164Z,1.80
2022-11-11T04:52:46.750Z,1.80
2022-11-11T04:55:32.274Z,2.00
2022-11-11T04:57:58.857Z,2.30
2022-11-11T05:00:28.987Z,1.90
2022-11-11T05:03:27.644Z,2.03
2022-11-11T05:06:14.421Z,2.57
2022-11-11T05:08:57.125Z,2.90
2022-11-11T05:11:25.542Z,1.93
2022-11-11T05:14:11.531Z,1.90
2022-11-11T05:17:15.602Z,1.73
2022-11-11T05:20:01.163Z,2.00
2022-11-11T05:22:34.681Z,2.17
2022-11-11T05:25:19.669Z,1.50
2022-11-11T05:27:46.318Z,2.23
2022-11-11T05:30:13.931Z,1.80
2022-11-11T05:32:40.546Z,2.00
2022-11-11T05:35:07.989Z,1.90
2022-11-11T05:37:34.790Z,2.13
2022-11-11T05:40:01.442Z,2.20
2022-11-11T05:42:28.105Z,1.90
2022-11-11T05:44:54.708Z,1.90
2022-11-11T05:47:21.313Z,1.83
2022-11-11T05:49:47.908Z,2.13
2022-11-11T05:52:16.427Z,2.37
2022-11-11T05:54:43.396Z,2.03
2022-11-11T05:57:10.038Z,2.17
2022-11-11T05:59:36.665Z,2.10
2022-11-11T06:02:03.517Z,1.80
2022-11-11T06:04:30.186Z,1.63
2022-11-11T06:06:56.808Z,1.80
2022-11-11T06:09:23.435Z,2.00
2022-11-11T06:11:50.046Z,1.90
2022-11-11T06:14:16.659Z,1.93
2022-11-11T06:16:43.249Z,2.10
2022-11-11T06:19:09.852Z,1.90
2022-11-11T06:21:56.410Z,2.00
2022-11-11T06:24:26.385Z,1.90
2022-11-11T06:26:54.549Z,1.90
2022-11-11T06:29:21.162Z,2.20
2022-11-11T06:31:47.773Z,1.87
2022-11-11T06:34:14.453Z,2.07
2022-11-11T06:36:41.105Z,2.10
2022-11-11T06:39:07.707Z,2.10
2022-11-11T06:41:34.303Z,1.90
2022-11-11T06:44:00.997Z,1.97
2022-11-11T06:46:27.703Z,1.83
2022-11-11T06:48:54.306Z,1.90
2022-11-11T06:51:20.904Z,2.07
2022-11-11T06:53:47.538Z,2.10
2022-11-11T06:56:14.245Z,1.93
2022-11-11T06:58:40.838Z,2.07
2022-11-11T07:01:08.295Z,2.63
2022-11-11T07:03:35.354Z,2.63
2022-11-11T07:06:02.931Z,2.20
2022-11-11T07:08:29.609Z,2.37
2022-11-11T07:10:56.229Z,2.50
2022-11-11T07:13:22.870Z,2.20
2022-11-11T07:15:49.608Z,2.63
2022-11-11T07:18:16.261Z,2.30
2022-11-11T07:20:42.860Z,2.07
2022-11-11T07:23:09.507Z,2.20
2022-11-11T07:25:36.150Z,2.43
2022-11-11T07:28:02.799Z,2.60
2022-11-11T07:30:29.487Z,2.17
2022-11-11T07:32:56.213Z,2.47
2022-11-11T07:35:23.017Z,2.37
2022-11-11T07:37:49.666Z,2.27
2022-11-11T07:40:17.216Z,2.37
2022-11-11T07:42:43.933Z,2.27
2022-11-11T07:45:11.217Z,2.33
2022-11-11T07:47:37.853Z,2.10
2022-11-11T07:50:07.984Z,2.17
2022-11-11T07:52:36.831Z,2.07
2022-11-11T07:55:04.459Z,2.20
2022-11-11T07:57:31.083Z,2.00
2022-11-11T07:59:57.710Z,2.30
2022-11-11T08:02:24.289Z,1.97
2022-11-11T08:04:55.100Z,2.10
2022-11-11T08:07:23.482Z,1.93
2022-11-11T08:09:50.507Z,1.83
2022-11-11T08:12:35.609Z,2.10
2022-11-11T08:15:06.547Z,2.00
2022-11-11T08:17:38.596Z,1.80
2022-11-11T08:20:09.475Z,1.90
2022-11-11T08:22:51.622Z,1.90
2022-11-11T08:25:30.559Z,2.17
2022-11-11T08:27:58.253Z,2.00
2022-11-11T08:30:24.863Z,1.70
2022-11-11T08:33:31.970Z,1.80
2022-11-11T08:35:54.213Z,1.70
2022-11-11T08:38:21.843Z,1.80
2022-11-11T08:40:48.452Z,1.80
2022-11-11T08:43:15.050Z,1.90
2022-11-11T08:45:41.685Z,2.00
2022-11-11T08:48:11.489Z,2.23
2022-11-11T08:50:38.850Z,1.60
2022-11-11T08:53:07.044Z,1.80
2022-11-11T08:55:34.806Z,1.80
2022-11-11T08:58:03.777Z,1.57
2022-11-11T09:00:30.488Z,1.90
2022-11-11T09:03:03.980Z,1.57
2022-11-11T09:05:30.740Z,1.40
2022-11-11T09:08:00.317Z,1.23
2022-11-11T09:10:26.924Z,1.60
2022-11-11T09:12:59.707Z,1.67
2022-11-11T09:15:26.547Z,1.70
2022-11-11T09:17:53.211Z,2.13
2022-11-11T09:20:24.699Z,1.70
2022-11-11T09:22:52.921Z,1.70
2022-11-11T09:25:19.917Z,1.30
2022-11-11T09:27:55.206Z,1.20
2022-11-11T09:30:21.868Z,1.57
2022-11-11T09:32:48.452Z,1.40
2022-11-11T09:35:15.190Z,1.73
2022-11-11T09:37:41.856Z,1.53
2022-11-11T09:40:15.089Z,1.50
2022-11-11T09:42:44.762Z,1.40
2022-11-11T09:45:22.098Z,1.30
2022-11-11T09:48:03.955Z,1.60
2022-11-11T09:50:34.323Z,1.30
2022-11-11T09:53:20.430Z,1.37
2022-11-11T09:55:48.635Z,1.30
2022-11-11T09:58:31.278Z,1.57
2022-11-11T10:01:18.198Z,1.40
2022-11-11T10:03:54.284Z,1.30
2022-11-11T10:06:24.121Z,1.10
2022-11-11T10:09:05.249Z,1.40
2022-11-11T10:12:02.930Z,1.67
2022-11-11T10:14:35.102Z,1.50
2022-11-11T10:17:09.945Z,1.50
2022-11-11T10:20:02.713Z,2.03
2022-11-11T10:22:33.877Z,2.03
2022-11-11T10:25:12.604Z,1.53
2022-11-11T10:27:43.419Z,1.30
2022-11-11T10:30:31.888Z,1.33
2022-11-11T10:33:02.823Z,1.53
2022-11-11T10:35:33.384Z,1.27
2022-11-11T10:38:18.069Z,1.00
2022-11-11T10:40:53.627Z,1.20
2022-11-11T10:43:23.311Z,2.47
2022-11-11T10:46:01.330Z,1.40
2022-11-11T10:48:34.289Z,1.20
2022-11-11T10:51:00.967Z,1.30
2022-11-11T10:53:38.670Z,1.30
2022-11-11T10:56:13.237Z,1.00
2022-11-11T10:58:56.712Z,1.10
2022-11-11T11:01:36.836Z,1.27
2022-11-11T11:04:06.688Z,1.37
2022-11-11T11:06:35.127Z,1.37
2022-11-11T11:09:23.604Z,1.20
2022-11-11T11:11:55.356Z,1.40
2022-11-11T11:14:25.286Z,1.37
2022-11-11T11:16:55.467Z,1.30
2022-11-11T11:19:26.457Z,0.97
2022-11-11T11:21:57.625Z,1.17
2022-11-11T11:24:25.306Z,1.70
2022-11-11T11:26:56.258Z,2.57
2022-11-11T11:29:32.462Z,1.77
2022-11-11T11:32:17.606Z,1.60
2022-11-11T11:34:51.835Z,1.60
2022-11-11T11:37:19.432Z,1.00
2022-11-11T11:39:46.199Z,1.30
2022-11-11T11:42:27.966Z,1.63
2022-11-11T11:44:54.574Z,1.30
2022-11-11T11:48:29.145Z,1.40
2022-11-11T11:51:21.340Z,1.57
2022-11-11T11:54:12.816Z,1.20
2022-11-11T11:56:46.587Z,1.40
2022-11-11T11:59:34.005Z,1.33
2022-11-11T12:02:06.576Z,1.43
2022-11-11T12:05:04.743Z,1.30
2022-11-11T12:07:31.294Z,1.17
2022-11-11T12:10:20.369Z,1.20
2022-11-11T12:13:24.366Z,1.30
2022-11-11T12:16:04.297Z,1.27
2022-11-11T12:18:30.872Z,0.90
2022-11-11T12:21:10.033Z,1.70
2022-11-11T12:24:02.200Z,1.13
2022-11-11T12:26:37.744Z,1.47
2022-11-11T12:29:19.519Z,1.67
2022-11-11T12:31:49.140Z,1.40
2022-11-11T12:34:15.696Z,1.13
2022-11-11T12:37:03.633Z,1.03
2022-11-11T12:39:39.141Z,1.10
2022-11-11T12:42:16.251Z,1.20
2022-11-11T12:44:52.052Z,0.90
2022-11-11T12:47:24.744Z,1.00
2022-11-11T12:50:04.276Z,1.03
2022-11-11T12:52:42.942Z,1.50
2022-11-11T12:55:20.333Z,1.10
2022-11-11T12:58:21.102Z,1.27
2022-11-11T13:01:15.480Z,1.00
2022-11-11T13:03:55.865Z,1.60
2022-11-11T13:07:03.012Z,1.27
2022-11-11T13:09:34.624Z,0.87
2022-11-11T13:12:36.025Z,1.20
2022-11-11T13:15:04.958Z,0.90
2022-11-11T13:17:31.981Z,1.60
2022-11-11T13:20:19.729Z,1.00
2022-11-11T13:22:48.259Z,0.70
2022-11-11T13:25:22.612Z,1.10
2022-11-11T13:27:53.198Z,0.80
2022-11-11T13:30:33.051Z,1.00
2022-11-11T13:33:11.559Z,0.80
2022-11-11T13:35:42.234Z,0.90
2022-11-11T13:38:13.018Z,0.80
2022-11-11T13:40:41.233Z,0.80
2022-11-11T13:43:38.439Z,0.90
2022-11-11T13:46:05.506Z,0.80
2022-11-11T13:48:35.528Z,1.00
2022-11-11T13:51:14.156Z,1.17
2022-11-11T13:53:40.757Z,1.10
2022-11-11T13:56:08.525Z,0.80
2022-11-11T13:58:40.211Z,0.93
2022-11-11T14:01:08.101Z,0.90
2022-11-11T14:03:36.450Z,0.90
2022-11-11T14:06:29.620Z,0.90
2022-11-11T14:08:57.002Z,0.70
2022-11-11T14:11:26.714Z,1.67
2022-11-11T14:13:57.457Z,0.70
2022-11-11T14:16:35.984Z,0.70
2022-11-11T14:19:28.951Z,0.80
2022-11-11T14:21:59.281Z,0.77
2022-11-11T14:24:42.379Z,1.03
2022-11-11T14:27:08.919Z,1.13
2022-11-11T14:29:38.412Z,0.80
2022-11-11T14:32:14.114Z,0.80
2022-11-11T14:34:58.774Z,1.10
2022-11-11T14:38:09.805Z,0.90
2022-11-11T14:40:36.414Z,0.90
2022-11-11T14:43:31.987Z,1.10
2022-11-11T14:46:06.776Z,1.13
2022-11-11T14:48:48.953Z,1.63
2022-11-11T14:51:41.772Z,0.90
2022-11-11T14:54:28.526Z,0.73
2022-11-11T14:57:02.881Z,0.90
2022-11-11T14:59:30.126Z,0.80
2022-11-11T15:01:56.715Z,1.13
2022-11-11T15:04:23.368Z,0.70
2022-11-11T15:07:00.678Z,0.80
2022-11-11T15:09:34.728Z,0.70
2022-11-11T15:12:13.864Z,0.87
2022-11-11T15:14:50.693Z,0.90
2022-11-11T15:17:45.083Z,0.70
2022-11-11T15:20:45.071Z,0.60
2022-11-11T15:23:24.429Z,0.50
2022-11-11T15:26:19.596Z,0.67
2022-11-11T15:29:23.908Z,0.70
2022-11-11T15:32:03.275Z,0.80
2022-11-11T15:34:38.991Z,0.60
2022-11-11T15:37:09.864Z,0.60
2022-11-11T15:39:50.787Z,0.70
2022-11-11T15:42:32.525Z,0.60
2022-11-11T15:45:00.034Z,0.70
2022-11-11T15:47:31.746Z,0.90
2022-11-11T15:50:00.791Z,0.80
2022-11-11T15:52:27.403Z,0.67
2022-11-11T15:54:54.520Z,0.90
2022-11-11T15:57:33.817Z,0.80
2022-11-11T16:00:02.270Z,0.80
2022-11-11T16:02:30.433Z,0.70
2022-11-11T16:05:01.769Z,0.80
2022-11-11T16:07:31.600Z,0.90
2022-11-11T16:09:59.291Z,0.83
2022-11-11T16:12:33.248Z,0.70
2022-11-11T16:15:00.225Z,0.80
2022-11-11T16:17:29.924Z,1.53
2022-11-11T16:19:56.562Z,0.97
2022-11-11T16:22:31.152Z,1.20
2022-11-11T16:24:57.813Z,1.20
2022-11-11T16:27:31.818Z,1.00
2022-11-11T16:30:18.638Z,1.07
2022-11-11T16:32:45.297Z,1.10
2022-11-11T16:35:37.829Z,0.93
2022-11-11T16:38:05.384Z,0.90
2022-11-11T16:40:31.950Z,1.33
2022-11-11T16:43:16.443Z,1.60
2022-11-11T16:45:52.607Z,1.00
2022-11-11T16:48:36.684Z,1.17
2022-11-11T16:51:04.781Z,0.97
2022-11-11T16:53:40.040Z,1.20
2022-11-11T16:56:07.162Z,1.00
2022-11-11T16:58:43.849Z,1.07
2022-11-11T17:01:10.922Z,0.90
2022-11-11T17:03:37.905Z,1.00
2022-11-11T17:06:08.401Z,1.20
2022-11-11T17:08:38.650Z,1.33
2022-11-11T17:11:06.567Z,1.10
2022-11-11T17:13:36.750Z,1.40
2022-11-11T17:16:08.155Z,1.60
2022-11-11T17:18:35.285Z,1.17
2022-11-11T17:21:02.067Z,1.20
2022-11-11T17:23:28.769Z,1.40
2022-11-11T17:25:56.601Z,1.57
2022-11-11T17:28:23.763Z,1.23
2022-11-11T17:30:50.398Z,1.60
2022-11-11T17:33:16.996Z,1.30
2022-11-11T17:35:51.231Z,1.40
2022-11-11T17:38:18.156Z,1.53
2022-11-11T17:40:48.408Z,1.30
2022-11-11T17:43:15.056Z,1.40
2022-11-11T17:45:41.722Z,1.30
2022-11-11T17:48:08.644Z,1.70
2022-11-11T17:50:39.238Z,1.60
2022-11-11T17:53:13.668Z,2.10
2022-11-11T17:55:42.994Z,1.67
2022-11-11T17:58:11.105Z,2.07
2022-11-11T18:00:37.718Z,2.10
2022-11-11T18:03:04.299Z,2.77
2022-11-11T18:05:30.895Z,2.20
2022-11-11T18:07:58.213Z,2.83
2022-11-11T18:10:24.809Z,2.90
2022-11-11T18:12:51.396Z,2.60
2022-11-11T18:15:18.018Z,2.13
2022-11-11T18:17:44.598Z,2.20
2022-11-11T18:20:11.279Z,2.03
2022-11-11T18:22:37.851Z,2.33
2022-11-11T18:25:04.905Z,2.97
2022-11-11T18:27:31.487Z,2.37
2022-11-11T18:29:58.133Z,2.53
2022-11-11T18:32:24.753Z,2.00
2022-11-11T18:34:51.351Z,2.37
2022-11-11T18:37:17.933Z,5.10
2022-11-11T18:39:44.549Z,3.67
2022-11-11T18:42:11.191Z,3.23
2022-11-11T18:44:37.870Z,2.80
2022-11-11T18:47:04.473Z,2.70
2022-11-11T18:49:31.087Z,2.47
2022-11-11T18:51:57.822Z,1.83
2022-11-11T18:54:30.022Z,2.07
2022-11-11T18:56:57.142Z,1.93
2022-11-11T18:59:23.745Z,3.00
2022-11-11T19:01:54.489Z,1.53
2022-11-11T19:04:21.759Z,3.63
2022-11-11T19:06:48.425Z,1.60
2022-11-11T19:09:15.123Z,1.50
2022-11-11T19:11:46.353Z,2.10
2022-11-11T19:14:14.843Z,1.60
2022-11-11T19:16:44.621Z,1.70
2022-11-11T19:19:11.397Z,2.00
2022-11-11T19:21:38.360Z,1.50
2022-11-11T19:24:06.617Z,2.03
2022-11-11T19:26:33.351Z,1.73
2022-11-11T19:29:02.880Z,1.43
2022-11-11T19:31:30.174Z,1.47
2022-11-11T19:33:57.541Z,2.33
2022-11-11T19:36:26.926Z,1.80
2022-11-11T19:38:53.735Z,1.63
2022-11-11T19:41:22.105Z,1.93
2022-11-11T19:43:49.815Z,1.57
2022-11-11T19:46:17.621Z,1.67
2022-11-11T19:48:44.802Z,1.53
2022-11-11T19:51:15.956Z,1.73
2022-11-11T19:53:42.857Z,1.60
2022-11-11T19:56:19.508Z,1.93
2022-11-11T19:58:46.668Z,1.50
2022-11-11T20:01:15.407Z,1.63
2022-11-11T20:03:42.282Z,1.50
2022-11-11T20:06:25.471Z,1.40
2022-11-11T20:08:52.399Z,1.73
2022-11-11T20:11:19.357Z,1.90
2022-11-11T20:13:46.289Z,2.03
2022-11-11T20:16:13.008Z,1.40
2022-11-11T20:18:39.614Z,1.60
2022-11-11T20:21:06.602Z,1.90
2022-11-11T20:23:37.381Z,1.90
2022-11-11T20:26:06.007Z,1.70
2022-11-11T20:28:32.618Z,2.10
2022-11-11T20:30:59.232Z,1.50
2022-11-11T20:33:26.141Z,1.13
2022-11-11T20:35:52.950Z,1.20
2022-11-11T20:38:19.570Z,1.60
2022-11-11T20:40:46.152Z,1.30
2022-11-11T20:43:12.769Z,1.60
2022-11-11T20:45:39.339Z,1.83
2022-11-11T20:48:09.374Z,1.60
2022-11-11T20:50:35.981Z,1.40
2022-11-11T20:53:02.617Z,1.53
2022-11-11T20:55:29.385Z,1.53
2022-11-11T20:57:55.960Z,1.40
2022-11-11T21:00:22.635Z,1.47
2022-11-11T21:02:49.207Z,1.43
2022-11-11T21:05:15.890Z,1.37
2022-11-11T21:07:42.479Z,1.70
2022-11-11T21:10:09.163Z,1.57
2022-11-11T21:12:35.745Z,2.20
2022-11-11T21:15:03.639Z,1.50
2022-11-11T21:17:30.230Z,1.37
2022-11-11T21:19:57.977Z,1.60
2022-11-11T21:22:24.564Z,1.33
2022-11-11T21:24:51.183Z,1.20
2022-11-11T21:27:17.772Z,1.13
2022-11-11T21:29:44.421Z,1.10
2022-11-11T21:32:10.995Z,1.30
2022-11-11T21:34:37.602Z,1.37
2022-11-11T21:37:04.246Z,1.50
2022-11-11T21:39:30.848Z,1.23
2022-11-11T21:41:57.462Z,1.13
2022-11-11T21:44:24.138Z,1.20
2022-11-11T21:46:50.729Z,1.50
2022-11-11T21:49:17.334Z,0.87
2022-11-11T21:51:43.924Z,1.67
2022-11-11T21:54:10.682Z,1.00
2022-11-11T21:56:37.784Z,0.93
2022-11-11T21:59:05.758Z,1.40
2022-11-11T22:01:35.274Z,0.97
2022-11-11T22:04:06.607Z,0.83
2022-11-11T22:06:33.487Z,0.87
2022-11-11T22:09:00.596Z,0.93
2022-11-11T22:11:28.785Z,0.80
2022-11-11T22:13:55.379Z,0.87
2022-11-11T22:16:26.333Z,1.03
2022-11-11T22:18:54.002Z,0.80
2022-11-11T22:21:22.206Z,0.70
2022-11-11T22:23:50.299Z,0.90
2022-11-11T22:26:18.632Z,0.90
2022-11-11T22:28:49.662Z,0.87
2022-11-11T22:31:20.765Z,1.00
2022-11-11T22:33:47.504Z,1.00
2022-11-11T22:36:15.853Z,1.03
2022-11-11T22:38:42.472Z,0.80
2022-11-11T22:41:20.352Z,0.90
2022-11-11T22:44:02.998Z,0.87
2022-11-11T22:46:30.270Z,0.90
2022-11-11T22:48:58.527Z,1.23
2022-11-11T22:51:26.203Z,1.10
2022-11-11T22:54:03.427Z,1.03
2022-11-11T22:56:30.161Z,1.00
2022-11-11T22:58:57.400Z,1.40
2022-11-11T23:01:29.473Z,0.83
2022-11-11T23:03:57.847Z,1.30
2022-11-11T23:06:26.309Z,1.20
2022-11-11T23:08:53.097Z,1.30
2022-11-11T23:11:24.242Z,1.27
2022-11-11T23:13:51.048Z,1.20
2022-11-11T23:16:19.916Z,1.03
2022-11-11T23:18:46.830Z,1.17
2022-11-11T23:21:14.329Z,1.23
2022-11-11T23:23:41.277Z,1.17
2022-11-11T23:26:12.810Z,1.30
2022-11-11T23:28:40.305Z,1.50
2022-11-11T23:31:08.767Z,2.00
2022-11-11T23:33:37.509Z,1.50
2022-11-11T23:36:05.795Z,1.20
2022-11-11T23:38:32.564Z,1.10
2022-11-11T23:40:59.201Z,1.40
2022-11-11T23:43:26.023Z,1.23
2022-11-11T23:45:57.295Z,1.10
2022-11-11T23:48:25.253Z,1.50
2022-11-11T23:50:52.069Z,1.30
2022-11-11T23:53:18.887Z,1.60
2022-11-11T23:55:45.548Z,1.60
2022-11-11T23:58:12.460Z,1.40
